Time;durP1;ratioP1;P1;durP2;ratioP2;P2;SDS_P1;SDS_P2;PMS_P1;PMS_P2;Temp;Humidity;BMP_temperature;BMP_pressure;BME280_temperature;BME280_humidity;BME280_pressure;Samples;Min_cycle;Max_cycle;Signal;HPM_P1;HPM_P2
2023/09/06 00:00:59;;;;;;;5.97;5.40;;;;;;;;;;5034676;28;20056;-60
2023/09/06 00:03:27;;;;;;;5.22;4.70;;;;;;;;;;5034807;28;20048;-59
2023/09/06 00:05:53;;;;;;;6.93;5.15;;;;;;;;;;5034596;28;20116;-60
2023/09/06 00:08:19;;;;;;;5.15;4.60;;;;;;;;;;5016687;28;20027;-60
2023/09/06 00:10:44;;;;;;;5.22;4.72;;;;;;;;;;5034247;28;20458;-59
2023/09/06 00:13:10;;;;;;;5.45;4.93;;;;;;;;;;5034755;28;20038;-60
2023/09/06 00:15:36;;;;;;;11.85;6.07;;;;;;;;;;5034409;28;20087;-60
2023/09/06 00:18:06;;;;;;;6.93;5.15;;;;;;;;;;5033730;28;20029;-59
2023/09/06 00:20:34;;;;;;;5.28;4.45;;;;;;;;;;5016537;28;20060;-59
2023/09/06 00:23:00;;;;;;;5.53;4.60;;;;;;;;;;5017003;28;20120;-65
2023/09/06 00:25:26;;;;;;;5.50;4.90;;;;;;;;;;5000382;28;20355;-65
2023/09/06 00:27:52;;;;;;;4.80;4.30;;;;;;;;;;5033880;28;20071;-64
2023/09/06 00:30:20;;;;;;;6.63;5.70;;;;;;;;;;5034188;28;20044;-64
2023/09/06 00:32:47;;;;;;;5.53;4.55;;;;;;;;;;5016565;28;20430;-58
2023/09/06 00:35:13;;;;;;;5.25;4.38;;;;;;;;;;5034002;28;20102;-59
2023/09/06 00:37:40;;;;;;;5.22;4.20;;;;;;;;;;5017025;28;20017;-59
2023/09/06 00:40:21;;;;;;;4.93;4.53;;;;;;;;;;5034222;28;20029;-59
2023/09/06 00:42:50;;;;;;;9.52;5.05;;;;;;;;;;5034007;28;20104;-59
2023/09/06 00:45:19;;;;;;;5.63;4.65;;;;;;;;;;5016452;28;20092;-60
2023/09/06 00:47:44;;;;;;;5.22;4.72;;;;;;;;;;5016013;28;20029;-60
2023/09/06 00:50:14;;;;;;;5.32;4.82;;;;;;;;;;5033875;28;20048;-60
2023/09/06 00:52:41;;;;;;;7.53;6.10;;;;;;;;;;5015985;28;20104;-60
2023/09/06 00:55:08;;;;;;;6.28;5.32;;;;;;;;;;5034312;28;20025;-59
2023/09/06 00:57:33;;;;;;;5.68;4.68;;;;;;;;;;5015923;28;20030;-61
2023/09/06 00:59:59;;;;;;;6.47;5.20;;;;;;;;;;5016079;28;20018;-61
2023/09/06 01:02:27;;;;;;;5.32;4.30;;;;;;;;;;5034053;28;20076;-60
2023/09/06 01:04:53;;;;;;;4.72;4.18;;;;;;;;;;5033769;28;20484;-61
2023/09/06 01:07:25;;;;;;;4.55;4.15;;;;;;;;;;5016409;28;20460;-61
2023/09/06 01:09:51;;;;;;;4.40;4.00;;;;;;;;;;4999882;28;20067;-61
2023/09/06 01:12:16;;;;;;;4.65;4.25;;;;;;;;;;5033802;28;20057;-61
2023/09/06 01:14:41;;;;;;;4.80;4.40;;;;;;;;;;5033862;28;20075;-60
2023/09/06 01:17:08;;;;;;;4.65;4.03;;;;;;;;;;5033713;28;20175;-59
2023/09/06 01:19:34;;;;;;;4.85;4.20;;;;;;;;;;5016443;28;20025;-60
2023/09/06 01:22:09;;;;;;;4.80;4.40;;;;;;;;;;5033801;28;20037;-59
2023/09/06 01:24:34;;;;;;;6.30;4.65;;;;;;;;;;4999336;28;20052;-60
2023/09/06 01:27:00;;;;;;;6.10;4.53;;;;;;;;;;5033449;28;20465;-60
2023/09/06 01:29:28;;;;;;;4.35;3.95;;;;;;;;;;5033525;28;20087;-60
2023/09/06 01:31:53;;;;;;;5.57;4.22;;;;;;;;;;5017256;28;20026;-61
2023/09/06 01:34:18;;;;;;;4.93;4.53;;;;;;;;;;5037504;28;20028;-60
2023/09/06 01:36:45;;;;;;;6.13;5.05;;;;;;;;;;5019276;28;20064;-61
2023/09/06 01:39:10;;;;;;;7.55;6.47;;;;;;;;;;5019672;28;20082;-61
2023/09/06 01:41:36;;;;;;;11.52;7.40;;;;;;;;;;5019422;28;20396;-61
2023/09/06 01:44:01;;;;;;;6.10;5.50;;;;;;;;;;5002998;28;20533;-60
2023/09/06 01:46:28;;;;;;;6.25;4.68;;;;;;;;;;5037745;28;20354;-60
2023/09/06 01:48:54;;;;;;;6.28;4.05;;;;;;;;;;5003211;28;20121;-60
2023/09/06 01:51:19;;;;;;;4.38;3.95;;;;;;;;;;5019578;28;20124;-60
2023/09/06 01:53:45;;;;;;;5.05;4.05;;;;;;;;;;5019217;28;20026;-60
2023/09/06 01:56:10;;;;;;;4.63;4.18;;;;;;;;;;5019765;28;20031;-61
2023/09/06 01:58:37;;;;;;;4.18;3.88;;;;;;;;;;5019600;28;20022;-60
2023/09/06 02:01:07;;;;;;;4.90;4.40;;;;;;;;;;5019357;28;20040;-60
2023/09/06 02:03:33;;;;;;;4.30;3.90;;;;;;;;;;5037174;28;20068;-59
2023/09/06 02:06:01;;;;;;;5.00;4.38;;;;;;;;;;5036648;28;20045;-59
2023/09/06 02:08:27;;;;;;;5.25;4.18;;;;;;;;;;5037091;28;20029;-59
2023/09/06 02:10:52;;;;;;;4.03;3.72;;;;;;;;;;5036886;28;20026;-60
2023/09/06 02:13:18;;;;;;;4.43;4.03;;;;;;;;;;5018949;28;20037;-60
2023/09/06 02:15:43;;;;;;;4.47;4.07;;;;;;;;;;5036565;28;20021;-61
2023/09/06 02:18:10;;;;;;;4.70;4.32;;;;;;;;;;5018871;28;20026;-60
2023/09/06 02:20:39;;;;;;;4.47;4.13;;;;;;;;;;5019032;28;20038;-60
2023/09/06 02:23:05;;;;;;;4.93;4.40;;;;;;;;;;5036965;28;20029;-60
2023/09/06 02:25:31;;;;;;;5.57;3.80;;;;;;;;;;5037027;28;20421;-60
2023/09/06 02:28:03;;;;;;;4.28;3.88;;;;;;;;;;5036320;28;20025;-60
2023/09/06 02:30:28;;;;;;;4.45;4.07;;;;;;;;;;5036127;28;20033;-60
2023/09/06 02:32:54;;;;;;;4.28;3.90;;;;;;;;;;5019302;28;20028;-60
2023/09/06 02:35:20;;;;;;;4.35;3.95;;;;;;;;;;5018218;28;20064;-60
2023/09/06 02:37:46;;;;;;;3.83;3.53;;;;;;;;;;5036873;28;20030;-60
2023/09/06 02:40:12;;;;;;;4.32;3.78;;;;;;;;;;5036003;28;20484;-60
2023/09/06 02:42:38;;;;;;;4.40;4.07;;;;;;;;;;5035979;28;20025;-60
2023/09/06 02:45:09;;;;;;;3.72;3.42;;;;;;;;;;5035862;28;20033;-60
2023/09/06 02:47:39;;;;;;;3.65;3.35;;;;;;;;;;5036461;28;20487;-60
2023/09/06 02:50:06;;;;;;;3.70;3.40;;;;;;;;;;5036080;28;20025;-60
2023/09/06 02:52:35;;;;;;;4.97;3.58;;;;;;;;;;5018054;28;20032;-60
2023/09/06 02:55:04;;;;;;;4.90;3.90;;;;;;;;;;5018027;28;20029;-59
2023/09/06 02:57:31;;;;;;;4.53;4.10;;;;;;;;;;5036099;28;20029;-59
2023/09/06 02:59:57;;;;;;;4.18;3.88;;;;;;;;;;5018297;28;20465;-59
2023/09/06 03:02:22;;;;;;;4.40;3.95;;;;;;;;;;5018061;28;20040;-59
2023/09/06 03:04:57;;;;;;;4.70;4.25;;;;;;;;;;5017872;28;20036;-59
2023/09/06 03:07:23;;;;;;;4.43;3.92;;;;;;;;;;5018255;28;20421;-59
2023/09/06 03:09:49;;;;;;;3.78;3.45;;;;;;;;;;5035919;28;20036;-59
2023/09/06 03:12:16;;;;;;;3.75;3.45;;;;;;;;;;5017950;28;20079;-59
2023/09/06 03:14:44;;;;;;;3.83;3.45;;;;;;;;;;5018300;28;20041;-59
2023/09/06 03:17:11;;;;;;;3.42;3.13;;;;;;;;;;5017860;28;20039;-59
2023/09/06 03:19:40;;;;;;;3.55;3.25;;;;;;;;;;5018213;28;20120;-59
2023/09/06 03:22:09;;;;;;;5.35;4.00;;;;;;;;;;5035309;28;20052;-59
2023/09/06 03:24:34;;;;;;;4.53;3.83;;;;;;;;;;5051357;28;20357;-59
2023/09/06 03:26:59;;;;;;;6.30;3.58;;;;;;;;;;5037265;28;20028;-60
2023/09/06 03:29:31;;;;;;;3.92;3.60;;;;;;;;;;5037124;28;20025;-60
2023/09/06 03:31:57;;;;;;;3.50;3.22;;;;;;;;;;5055026;28;20082;-61
2023/09/06 03:34:24;;;;;;;4.60;4.15;;;;;;;;;;5037630;28;20020;-61
2023/09/06 03:36:55;;;;;;;4.45;4.05;;;;;;;;;;5020801;28;20041;-61
2023/09/06 03:39:21;;;;;;;4.07;3.78;;;;;;;;;;5036981;28;20061;-60
2023/09/06 03:41:46;;;;;;;4.32;3.90;;;;;;;;;;5036711;28;20067;-60
2023/09/06 03:44:16;;;;;;;5.60;3.70;;;;;;;;;;5054793;28;20480;-60
2023/09/06 03:46:41;;;;;;;3.13;2.92;;;;;;;;;;5036746;28;20025;-60
2023/09/06 03:49:08;;;;;;;3.22;2.85;;;;;;;;;;5054607;28;20037;-61
2023/09/06 03:51:34;;;;;;;3.60;3.30;;;;;;;;;;5054840;28;20468;-59
2023/09/06 03:54:05;;;;;;;3.58;3.28;;;;;;;;;;5036914;28;20036;-59
2023/09/06 03:56:31;;;;;;;3.75;3.33;;;;;;;;;;5036993;28;20063;-58
2023/09/06 03:59:00;;;;;;;3.65;3.35;;;;;;;;;;5054440;28;20033;-58
2023/09/06 04:01:26;;;;;;;3.40;3.05;;;;;;;;;;5036897;28;20067;-59
2023/09/06 04:03:53;;;;;;;3.47;3.17;;;;;;;;;;5037182;28;20087;-60
2023/09/06 04:06:19;;;;;;;2.78;2.58;;;;;;;;;;5037197;28;20033;-60
2023/09/06 04:08:45;;;;;;;3.03;2.83;;;;;;;;;;5036590;28;20136;-60
2023/09/06 04:11:11;;;;;;;3.28;3.00;;;;;;;;;;5036334;28;20448;-59
2023/09/06 04:13:36;;;;;;;3.08;2.78;;;;;;;;;;5036839;28;20031;-60
2023/09/06 04:16:05;;;;;;;3.55;3.25;;;;;;;;;;5036222;28;20063;-60
2023/09/06 04:18:34;;;;;;;5.47;3.25;;;;;;;;;;5036354;28;20532;-60
2023/09/06 04:21:00;;;;;;;4.13;3.72;;;;;;;;;;5036484;28;20055;-60
2023/09/06 04:23:25;;;;;;;4.00;3.70;;;;;;;;;;5036203;28;20015;-60
2023/09/06 04:25:55;;;;;;;3.90;3.55;;;;;;;;;;5036444;28;20025;-60
2023/09/06 04:28:25;;;;;;;5.43;4.22;;;;;;;;;;5054354;28;20365;-60
2023/09/06 04:30:52;;;;;;;4.47;4.00;;;;;;;;;;5036172;28;20079;-63
2023/09/06 04:33:21;;;;;;;3.80;3.28;;;;;;;;;;5036809;28;20025;-61
2023/09/06 04:35:52;;;;;;;4.38;3.80;;;;;;;;;;5035620;28;20065;-62
2023/09/06 04:38:20;;;;;;;4.90;4.50;;;;;;;;;;5036187;28;20033;-61
2023/09/06 04:40:51;;;;;;;5.00;4.05;;;;;;;;;;5036048;28;20059;-62
2023/09/06 04:43:18;;;;;;;4.60;4.20;;;;;;;;;;5001671;28;20038;-61
2023/09/06 04:45:45;;;;;;;4.82;4.28;;;;;;;;;;4995622;28;20076;-62
2023/09/06 04:48:12;;;;;;;4.95;4.45;;;;;;;;;;4995951;28;20064;-62
2023/09/06 04:50:38;;;;;;;8.85;4.32;;;;;;;;;;4996354;28;20034;-62
2023/09/06 04:53:07;;;;;;;8.98;4.03;;;;;;;;;;5013501;28;20429;-62
2023/09/06 04:55:35;;;;;;;4.78;4.22;;;;;;;;;;4994479;28;20025;-62
2023/09/06 04:58:03;;;;;;;6.57;4.23;;;;;;;;;;5015339;28;20481;-62
2023/09/06 05:00:36;;;;;;;4.63;3.70;;;;;;;;;;4999515;28;20144;-62
2023/09/06 05:03:08;;;;;;;4.15;3.75;;;;;;;;;;5015888;28;20037;-62
2023/09/06 05:05:41;;;;;;;4.60;4.20;;;;;;;;;;5015396;28;20401;-62
2023/09/06 05:08:07;;;;;;;6.70;4.55;;;;;;;;;;5010773;28;20040;-61
2023/09/06 05:10:35;;;;;;;5.82;4.88;;;;;;;;;;4996299;28;20022;-61
2023/09/06 05:13:07;;;;;;;10.18;4.93;;;;;;;;;;4996498;28;20056;-61
2023/09/06 05:15:38;;;;;;;8.15;5.05;;;;;;;;;;4999397;28;20370;-61
2023/09/06 05:18:08;;;;;;;9.15;5.40;;;;;;;;;;5018466;28;20017;-69
2023/09/06 05:20:38;;;;;;;6.55;5.10;;;;;;;;;;5012119;28;20054;-62
2023/09/06 05:23:20;;;;;;;9.38;5.75;;;;;;;;;;5004768;23;20037;-64
2023/09/06 05:25:46;;;;;;;11.15;5.43;;;;;;;;;;4895327;29;20049;-60
2023/09/06 05:28:23;;;;;;;9.80;6.63;;;;;;;;;;4896651;29;20381;-67
2023/09/06 05:31:01;;;;;;;10.82;6.50;;;;;;;;;;4865393;29;20735;-60
2023/09/06 05:33:26;;;;;;;12.73;6.60;;;;;;;;;;4879284;29;20029;-67
2023/09/06 05:35:54;;;;;;;9.05;7.03;;;;;;;;;;4896063;29;20044;-67
2023/09/06 05:38:20;;;;;;;9.80;6.45;;;;;;;;;;4879222;29;20554;-67
2023/09/06 05:40:47;;;;;;;11.30;6.53;;;;;;;;;;4896198;29;20032;-60
2023/09/06 05:43:18;;;;;;;9.13;6.88;;;;;;;;;;4879849;29;20048;-60
2023/09/06 05:45:44;;;;;;;12.25;6.20;;;;;;;;;;4896600;29;20028;-60
2023/09/06 05:48:11;;;;;;;9.98;6.22;;;;;;;;;;4863916;29;20071;-60
2023/09/06 05:50:36;;;;;;;10.60;7.10;;;;;;;;;;4895359;29;20052;-60
2023/09/06 05:53:02;;;;;;;12.77;7.45;;;;;;;;;;4894193;29;20033;-60
2023/09/06 05:55:28;;;;;;;11.75;6.97;;;;;;;;;;4893717;29;20029;-60
2023/09/06 05:57:54;;;;;;;9.45;6.30;;;;;;;;;;4894307;29;20031;-60
2023/09/06 06:00:21;;;;;;;8.88;6.45;;;;;;;;;;4879859;29;20040;-60
2023/09/06 06:02:51;;;;;;;11.15;5.90;;;;;;;;;;4879941;29;20397;-60
2023/09/06 06:05:18;;;;;;;7.18;5.68;;;;;;;;;;4880193;29;20039;-60
2023/09/06 06:07:44;;;;;;;9.40;4.93;;;;;;;;;;4880051;29;20036;-60
2023/09/06 06:10:12;;;;;;;8.13;5.35;;;;;;;;;;4895504;29;20377;-60
2023/09/06 06:12:38;;;;;;;6.00;5.07;;;;;;;;;;4897037;29;20061;-60
2023/09/06 06:15:05;;;;;;;7.72;5.28;;;;;;;;;;4897562;29;20044;-60
2023/09/06 06:17:30;;;;;;;5.90;4.85;;;;;;;;;;4898528;29;20060;-60
2023/09/06 06:19:55;;;;;;;5.95;4.82;;;;;;;;;;4900933;29;20512;-60
2023/09/06 06:22:20;;;;;;;6.40;4.80;;;;;;;;;;4900844;29;20028;-60
2023/09/06 06:24:47;;;;;;;5.15;4.60;;;;;;;;;;4911881;29;20052;-60
2023/09/06 06:27:13;;;;;;;4.40;3.85;;;;;;;;;;4919685;29;20040;-60
2023/09/06 06:29:39;;;;;;;5.80;4.00;;;;;;;;;;4919551;29;20039;-60
2023/09/06 06:32:05;;;;;;;5.97;3.80;;;;;;;;;;4918350;29;20031;-60
2023/09/06 06:34:30;;;;;;;4.22;3.78;;;;;;;;;;4919624;29;20377;-60
2023/09/06 06:36:55;;;;;;;4.47;4.03;;;;;;;;;;4902562;29;20024;-60
2023/09/06 06:39:21;;;;;;;4.28;3.90;;;;;;;;;;4919449;29;20036;-60
2023/09/06 06:41:46;;;;;;;4.90;4.00;;;;;;;;;;4919431;29;20031;-60
2023/09/06 06:44:11;;;;;;;3.92;3.63;;;;;;;;;;4902450;29;20035;-60
2023/09/06 06:46:37;;;;;;;4.20;3.80;;;;;;;;;;4919361;29;20438;-59
2023/09/06 06:49:04;;;;;;;4.53;4.13;;;;;;;;;;4919197;29;20036;-60
2023/09/06 06:51:38;;;;;;;3.90;3.42;;;;;;;;;;4919331;29;20226;-60
2023/09/06 06:54:10;;;;;;;18.52;5.55;;;;;;;;;;4919189;29;20036;-60
2023/09/06 06:56:36;;;;;;;4.13;3.78;;;;;;;;;;4919183;29;20028;-60
2023/09/06 06:59:04;;;;;;;5.18;3.85;;;;;;;;;;4919037;29;20044;-60
2023/09/06 07:01:30;;;;;;;4.80;3.92;;;;;;;;;;4917858;29;20377;-59
2023/09/06 07:03:56;;;;;;;5.18;4.30;;;;;;;;;;4917935;29;20047;-60
2023/09/06 07:06:23;;;;;;;5.45;4.13;;;;;;;;;;4917777;29;20028;-60
2023/09/06 07:08:48;;;;;;;4.05;3.70;;;;;;;;;;4918050;29;20068;-59
2023/09/06 07:11:14;;;;;;;4.60;4.03;;;;;;;;;;4901988;29;20059;-60
2023/09/06 07:13:39;;;;;;;4.03;3.53;;;;;;;;;;4917784;29;20164;-60
2023/09/06 07:16:04;;;;;;;4.47;3.83;;;;;;;;;;4917728;29;20052;-60
2023/09/06 07:18:30;;;;;;;4.45;4.05;;;;;;;;;;4918796;29;20122;-59
2023/09/06 07:20:56;;;;;;;6.80;4.15;;;;;;;;;;4918757;29;20032;-60
2023/09/06 07:23:21;;;;;;;5.00;3.90;;;;;;;;;;4918517;29;20031;-60
2023/09/06 07:25:47;;;;;;;4.63;3.33;;;;;;;;;;4918716;29;20400;-60
2023/09/06 07:28:15;;;;;;;4.75;3.40;;;;;;;;;;4918536;29;20115;-67
2023/09/06 07:30:43;;;;;;;9.70;4.07;;;;;;;;;;4916683;29;20112;-67
2023/09/06 07:33:12;;;;;;;5.18;3.63;;;;;;;;;;4918656;29;20032;-66
2023/09/06 07:35:39;;;;;;;5.63;3.65;;;;;;;;;;4918384;29;20028;-66
2023/09/06 07:38:05;;;;;;;3.92;3.60;;;;;;;;;;4918421;29;20477;-66
2023/09/06 07:40:30;;;;;;;4.63;4.18;;;;;;;;;;4918485;29;20047;-66
2023/09/06 07:42:55;;;;;;;5.53;4.03;;;;;;;;;;4918357;29;20448;-66
2023/09/06 07:45:21;;;;;;;5.35;4.32;;;;;;;;;;4918236;29;20039;-66
2023/09/06 07:47:46;;;;;;;8.13;4.05;;;;;;;;;;4918229;29;20028;-66
2023/09/06 07:50:12;;;;;;;6.10;4.07;;;;;;;;;;4918053;29;20374;-66
2023/09/06 07:52:37;;;;;;;4.65;4.13;;;;;;;;;;4917029;29;20028;-66
2023/09/06 07:55:03;;;;;;;5.50;4.13;;;;;;;;;;4918097;29;20095;-66
2023/09/06 07:57:29;;;;;;;4.07;3.55;;;;;;;;;;4918116;29;20107;-66
2023/09/06 07:59:55;;;;;;;5.50;4.00;;;;;;;;;;4917980;29;20075;-67
2023/09/06 08:02:21;;;;;;;4.60;4.05;;;;;;;;;;4917993;29;20046;-66
2023/09/06 08:04:46;;;;;;;4.45;4.05;;;;;;;;;;4917935;29;20036;-67
2023/09/06 08:07:11;;;;;;;4.53;4.00;;;;;;;;;;4917844;29;20088;-66
2023/09/06 08:09:38;;;;;;;4.20;3.78;;;;;;;;;;4917755;29;20144;-64
2023/09/06 08:12:04;;;;;;;5.57;4.30;;;;;;;;;;4901232;29;20035;-64
2023/09/06 08:14:29;;;;;;;3.45;3.13;;;;;;;;;;4916575;29;20051;-64
2023/09/06 08:16:55;;;;;;;5.40;3.55;;;;;;;;;;4916388;29;20031;-64
2023/09/06 08:19:20;;;;;;;8.13;4.47;;;;;;;;;;4916470;29;20043;-64
2023/09/06 08:21:46;;;;;;;14.43;5.82;;;;;;;;;;4917704;29;20040;-64
2023/09/06 08:24:11;;;;;;;9.05;3.95;;;;;;;;;;4917454;29;20048;-64
2023/09/06 08:26:36;;;;;;;14.27;7.75;;;;;;;;;;4917586;29;20396;-63
2023/09/06 08:29:02;;;;;;;4.82;2.95;;;;;;;;;;4916509;29;20060;-64
2023/09/06 08:31:27;;;;;;;3.63;2.80;;;;;;;;;;4917663;29;20023;-64
2023/09/06 08:33:53;;;;;;;3.50;2.78;;;;;;;;;;4917440;29;20477;-64
2023/09/06 08:36:18;;;;;;;2.92;2.72;;;;;;;;;;4917419;29;20039;-64
2023/09/06 08:38:43;;;;;;;3.45;3.15;;;;;;;;;;4916153;29;20047;-64
2023/09/06 08:41:09;;;;;;;3.63;2.80;;;;;;;;;;4917228;29;20469;-64
2023/09/06 08:43:36;;;;;;;3.13;2.85;;;;;;;;;;4917308;29;20123;-64
2023/09/06 08:46:02;;;;;;;3.30;2.67;;;;;;;;;;4917250;29;20393;-64
2023/09/06 08:48:28;;;;;;;3.30;3.00;;;;;;;;;;4917213;29;20043;-64
2023/09/06 08:50:54;;;;;;;2.70;2.50;;;;;;;;;;4917152;29;20033;-64
2023/09/06 08:53:19;;;;;;;2.70;2.50;;;;;;;;;;4917222;29;20541;-64
2023/09/06 08:55:45;;;;;;;2.65;2.45;;;;;;;;;;4915937;29;20123;-63
2023/09/06 08:58:11;;;;;;;11.23;7.72;;;;;;;;;;4917222;29;20032;-64
2023/09/06 09:00:38;;;;;;;4.53;4.15;;;;;;;;;;4917122;29;20068;-64
2023/09/06 09:03:03;;;;;;;3.45;2.70;;;;;;;;;;4900381;29;20461;-64
2023/09/06 09:05:28;;;;;;;3.70;3.30;;;;;;;;;;4917075;29;20036;-64
2023/09/06 09:08:00;;;;;;;6.43;3.85;;;;;;;;;;4916917;29;20400;-64
2023/09/06 09:10:30;;;;;;;3.40;3.10;;;;;;;;;;4917023;29;20412;-64
2023/09/06 09:12:56;;;;;;;5.65;3.30;;;;;;;;;;4916944;29;20032;-64
2023/09/06 09:15:22;;;;;;;10.57;4.57;;;;;;;;;;4917040;29;20424;-64
2023/09/06 09:17:48;;;;;;;3.83;3.25;;;;;;;;;;4900202;29;20144;-64
2023/09/06 09:20:14;;;;;;;3.97;2.88;;;;;;;;;;4916845;29;20107;-64
2023/09/06 09:22:40;;;;;;;2.88;2.67;;;;;;;;;;4916937;29;20111;-64
2023/09/06 09:25:15;;;;;;;2.90;2.70;;;;;;;;;;4915603;29;20056;-64
2023/09/06 09:27:42;;;;;;;2.90;2.70;;;;;;;;;;4917135;29;20036;-64
2023/09/06 09:30:08;;;;;;;3.10;2.80;;;;;;;;;;4916836;29;20039;-64
2023/09/06 09:32:33;;;;;;;2.83;2.30;;;;;;;;;;4916846;29;20036;-64
2023/09/06 09:34:59;;;;;;;2.70;2.50;;;;;;;;;;4916800;29;20031;-64
2023/09/06 09:37:29;;;;;;;3.70;3.40;;;;;;;;;;4899881;29;20032;-64
2023/09/06 09:39:55;;;;;;;3.17;2.90;;;;;;;;;;4916740;29;20064;-64
2023/09/06 09:42:20;;;;;;;2.80;2.33;;;;;;;;;;4916681;29;20040;-64
2023/09/06 09:44:58;;;;;;;2.90;2.70;;;;;;;;;;4916715;29;20024;-64
2023/09/06 09:47:26;;;;;;;3.17;2.38;;;;;;;;;;4916664;29;20101;-64
2023/09/06 09:49:52;;;;;;;3.78;2.72;;;;;;;;;;4915473;29;20050;-64
2023/09/06 09:52:17;;;;;;;2.70;2.50;;;;;;;;;;4917271;29;20484;-64
2023/09/06 09:54:47;;;;;;;4.68;4.28;;;;;;;;;;4920203;29;20081;-64
2023/09/06 09:57:13;;;;;;;5.50;5.00;;;;;;;;;;4920326;29;20507;-64
2023/09/06 09:59:40;;;;;;;3.50;3.20;;;;;;;;;;4920190;29;20100;-64
2023/09/06 10:02:06;;;;;;;4.10;3.00;;;;;;;;;;4920177;29;20032;-64
2023/09/06 10:04:35;;;;;;;12.00;8.43;;;;;;;;;;4918922;29;20392;-64
2023/09/06 10:07:01;;;;;;;5.57;4.38;;;;;;;;;;4919985;29;20488;-64
2023/09/06 10:09:27;;;;;;;3.17;2.97;;;;;;;;;;4919972;29;20047;-65
2023/09/06 10:11:54;;;;;;;3.08;2.72;;;;;;;;;;4920041;29;20064;-64
2023/09/06 10:14:22;;;;;;;3.60;3.10;;;;;;;;;;4903042;29;20036;-64
2023/09/06 10:16:48;;;;;;;3.53;2.90;;;;;;;;;;4919964;29;20032;-64
2023/09/06 10:19:14;;;;;;;4.25;3.00;;;;;;;;;;4919885;29;20160;-64
2023/09/06 10:21:40;;;;;;;4.38;3.97;;;;;;;;;;4919854;29;20052;-64
2023/09/06 10:24:08;;;;;;;3.92;3.55;;;;;;;;;;4919815;29;20052;-64
2023/09/06 10:26:36;;;;;;;2.90;2.65;;;;;;;;;;4902716;29;20036;-65
2023/09/06 10:29:07;;;;;;;7.85;4.97;;;;;;;;;;4919382;29;20066;-64
2023/09/06 10:31:34;;;;;;;14.90;9.70;;;;;;;;;;4902619;29;20461;-64
2023/09/06 10:33:59;;;;;;;10.70;7.57;;;;;;;;;;4918375;29;20107;-64
2023/09/06 10:36:27;;;;;;;3.40;3.10;;;;;;;;;;4919567;29;20116;-64
2023/09/06 10:38:52;;;;;;;15.35;10.30;;;;;;;;;;4902545;29;20437;-64
2023/09/06 10:41:21;;;;;;;6.53;4.95;;;;;;;;;;4919521;29;20066;-64
2023/09/06 10:43:55;;;;;;;3.22;3.03;;;;;;;;;;4919417;29;20028;-65
2023/09/06 10:46:27;;;;;;;3.38;3.08;;;;;;;;;;4919353;29;20069;-64
2023/09/06 10:49:11;;;;;;;3.40;3.00;;;;;;;;;;4918159;29;20050;-64
2023/09/06 10:51:55;;;;;;;3.45;3.15;;;;;;;;;;4919313;29;20028;-65
2023/09/06 10:54:24;;;;;;;4.90;3.58;;;;;;;;;;4919230;29;20042;-64
2023/09/06 10:57:03;;;;;;;3.97;2.60;;;;;;;;;;4902275;29;20032;-64
2023/09/06 10:59:29;;;;;;;4.18;3.15;;;;;;;;;;4919253;29;20119;-64
2023/09/06 11:02:13;;;;;;;3.20;2.90;;;;;;;;;;4919067;29;20119;-65
2023/09/06 11:04:39;;;;;;;3.67;3.33;;;;;;;;;;4919061;29;20046;-64
2023/09/06 11:07:09;;;;;;;5.30;3.05;;;;;;;;;;4917886;29;20028;-65
2023/09/06 11:09:37;;;;;;;3.05;2.85;;;;;;;;;;4918906;29;20079;-64
2023/09/06 11:12:03;;;;;;;2.85;2.35;;;;;;;;;;4919200;29;20029;-64
2023/09/06 11:14:29;;;;;;;4.90;3.22;;;;;;;;;;4918936;29;20369;-64
2023/09/06 11:16:54;;;;;;;3.05;2.85;;;;;;;;;;4918718;29;20038;-65
2023/09/06 11:19:29;;;;;;;4.82;3.00;;;;;;;;;;4918764;29;20036;-64
2023/09/06 11:22:07;;;;;;;3.17;2.65;;;;;;;;;;4918871;29;20084;-64
2023/09/06 11:24:34;;;;;;;3.75;3.17;;;;;;;;;;4918558;29;20048;-64
2023/09/06 11:27:03;;;;;;;2.85;2.65;;;;;;;;;;4918678;29;20036;-64
2023/09/06 11:29:30;;;;;;;6.13;3.30;;;;;;;;;;4918629;29;20075;-65
2023/09/06 11:32:07;;;;;;;3.05;2.80;;;;;;;;;;4918542;29;20024;-64
2023/09/06 11:34:40;;;;;;;3.95;2.85;;;;;;;;;;4918542;29;20028;-64
2023/09/06 11:37:06;;;;;;;3.30;3.00;;;;;;;;;;4918498;29;20036;-64
2023/09/06 11:39:34;;;;;;;4.07;3.13;;;;;;;;;;4918408;29;20036;-64
2023/09/06 11:42:01;;;;;;;3.42;3.13;;;;;;;;;;4918319;29;20044;-64
2023/09/06 11:44:26;;;;;;;3.00;2.67;;;;;;;;;;4918393;29;20032;-64
2023/09/06 11:46:53;;;;;;;3.15;2.70;;;;;;;;;;4918307;29;20395;-64
2023/09/06 11:49:21;;;;;;;2.80;2.60;;;;;;;;;;4918151;29;20458;-65
2023/09/06 11:51:47;;;;;;;3.88;3.47;;;;;;;;;;4918098;29;20472;-64
2023/09/06 11:54:13;;;;;;;4.50;3.10;;;;;;;;;;4917035;29;20438;-65
2023/09/06 11:56:42;;;;;;;3.10;2.85;;;;;;;;;;4918060;29;20036;-64
2023/09/06 11:59:12;;;;;;;3.53;2.75;;;;;;;;;;4916989;29;20057;-64
2023/09/06 12:01:43;;;;;;;4.75;3.33;;;;;;;;;;4916971;29;20103;-64
2023/09/06 12:04:13;;;;;;;4.03;3.47;;;;;;;;;;4917985;29;20044;-64
2023/09/06 12:06:41;;;;;;;3.42;3.08;;;;;;;;;;4918016;29;20043;-64
2023/09/06 12:09:12;;;;;;;3.78;3.05;;;;;;;;;;4917850;29;20032;-65
2023/09/06 12:11:39;;;;;;;5.95;3.05;;;;;;;;;;4917732;29;20028;-65
2023/09/06 12:14:04;;;;;;;3.58;3.17;;;;;;;;;;4918061;29;20028;-64
2023/09/06 12:16:31;;;;;;;3.15;2.85;;;;;;;;;;4917358;29;20404;-65
2023/09/06 12:18:56;;;;;;;4.25;3.28;;;;;;;;;;4917701;29;20032;-64
2023/09/06 12:21:22;;;;;;;4.57;3.28;;;;;;;;;;4917765;29;20035;-64
2023/09/06 12:23:47;;;;;;;3.42;3.13;;;;;;;;;;4917514;29;20139;-64
2023/09/06 12:26:15;;;;;;;3.30;3.00;;;;;;;;;;4916369;29;20057;-64
2023/09/06 12:28:40;;;;;;;3.15;2.85;;;;;;;;;;4917542;29;20227;-64
2023/09/06 12:31:06;;;;;;;6.28;3.25;;;;;;;;;;4917442;29;20028;-64
2023/09/06 12:33:31;;;;;;;3.42;2.42;;;;;;;;;;4917506;29;20553;-64
2023/09/06 12:36:00;;;;;;;3.03;2.83;;;;;;;;;;4917468;29;20115;-65
2023/09/06 12:38:29;;;;;;;4.05;3.28;;;;;;;;;;4917408;29;20481;-64
2023/09/06 12:40:56;;;;;;;3.90;3.30;;;;;;;;;;4917371;29;20517;-64
2023/09/06 12:43:21;;;;;;;3.60;3.08;;;;;;;;;;4916061;29;20044;-64
2023/09/06 12:45:47;;;;;;;3.83;2.90;;;;;;;;;;4917264;29;20035;-65
2023/09/06 12:48:13;;;;;;;3.92;3.58;;;;;;;;;;4917286;29;20051;-64
2023/09/06 12:50:38;;;;;;;3.70;3.40;;;;;;;;;;4917209;29;20036;-65
2023/09/06 12:53:04;;;;;;;4.57;3.25;;;;;;;;;;4917153;29;20036;-64
2023/09/06 12:55:30;;;;;;;4.50;3.30;;;;;;;;;;4900406;29;20084;-64
2023/09/06 12:57:58;;;;;;;4.10;3.35;;;;;;;;;;4917635;29;20028;-64
2023/09/06 13:00:24;;;;;;;7.10;3.53;;;;;;;;;;4917377;29;20096;-65
2023/09/06 13:02:49;;;;;;;3.70;3.40;;;;;;;;;;4917224;29;20480;-64
2023/09/06 13:05:19;;;;;;;3.75;3.45;;;;;;;;;;4900118;29;20040;-65
2023/09/06 13:07:45;;;;;;;4.55;3.10;;;;;;;;;;4897986;29;20024;-65
2023/09/06 13:10:10;;;;;;;3.60;3.20;;;;;;;;;;4918296;29;20074;-65
2023/09/06 13:12:37;;;;;;;4.22;3.53;;;;;;;;;;4899592;29;20032;-65
2023/09/06 13:15:08;;;;;;;6.03;3.42;;;;;;;;;;4917040;29;20055;-65
2023/09/06 13:17:35;;;;;;;3.45;3.15;;;;;;;;;;4923033;29;20032;-66
2023/09/06 13:20:02;;;;;;;3.58;3.28;;;;;;;;;;4916236;29;20373;-65
2023/09/06 13:22:27;;;;;;;5.07;3.50;;;;;;;;;;4916142;29;20013;-65
2023/09/06 13:24:53;;;;;;;3.95;3.10;;;;;;;;;;4912771;29;20054;-65
2023/09/06 13:27:18;;;;;;;5.85;3.13;;;;;;;;;;4901123;29;20393;-65
2023/09/06 13:29:43;;;;;;;3.53;2.95;;;;;;;;;;4901842;29;20031;-66
2023/09/06 13:32:09;;;;;;;4.10;3.70;;;;;;;;;;4901944;29;20037;-65
2023/09/06 13:34:36;;;;;;;4.55;3.30;;;;;;;;;;4901661;29;20040;-65
2023/09/06 13:37:03;;;;;;;3.95;3.08;;;;;;;;;;4900483;29;20080;-67
2023/09/06 13:39:34;;;;;;;3.42;3.13;;;;;;;;;;4885090;29;20477;-61
2023/09/06 13:42:00;;;;;;;3.50;3.20;;;;;;;;;;4901270;29;20028;-67
2023/09/06 13:44:29;;;;;;;3.20;2.90;;;;;;;;;;4900924;29;20097;-63
2023/09/06 13:46:58;;;;;;;3.38;3.08;;;;;;;;;;4900869;29;20040;-60
2023/09/06 13:49:24;;;;;;;3.85;3.55;;;;;;;;;;4899832;29;20036;-67
2023/09/06 13:51:49;;;;;;;3.30;3.10;;;;;;;;;;4900857;29;20028;-67
2023/09/06 13:54:14;;;;;;;3.63;3.25;;;;;;;;;;4900912;29;20034;-67
2023/09/06 13:56:41;;;;;;;5.20;3.25;;;;;;;;;;4900711;29;20036;-68
2023/09/06 13:59:07;;;;;;;4.32;3.58;;;;;;;;;;4900789;29;20021;-65
2023/09/06 14:01:32;;;;;;;3.35;3.05;;;;;;;;;;4901242;29;20033;-65
2023/09/06 14:03:57;;;;;;;3.50;3.10;;;;;;;;;;4901448;29;20099;-65
2023/09/06 14:06:24;;;;;;;3.13;2.83;;;;;;;;;;4901347;29;20059;-66
2023/09/06 14:08:49;;;;;;;3.63;3.33;;;;;;;;;;4901333;29;20032;-66
2023/09/06 14:11:16;;;;;;;4.07;3.60;;;;;;;;;;4901198;29;20116;-66
2023/09/06 14:13:41;;;;;;;4.25;3.10;;;;;;;;;;4900621;29;20043;-67
2023/09/06 14:16:07;;;;;;;3.42;3.13;;;;;;;;;;4900760;29;20024;-67
2023/09/06 14:18:34;;;;;;;4.03;3.10;;;;;;;;;;4900763;29;20036;-66
2023/09/06 14:20:59;;;;;;;3.40;3.08;;;;;;;;;;4901376;29;20060;-66
2023/09/06 14:23:24;;;;;;;4.10;2.85;;;;;;;;;;4901606;29;20489;-69
2023/09/06 14:25:50;;;;;;;5.97;3.45;;;;;;;;;;4902661;29;20115;-68
2023/09/06 14:28:15;;;;;;;5.05;3.10;;;;;;;;;;4917771;29;20130;-69
2023/09/06 14:30:41;;;;;;;3.92;3.47;;;;;;;;;;4918849;29;20087;-69
2023/09/06 14:33:07;;;;;;;3.35;3.08;;;;;;;;;;4902262;29;20032;-69
2023/09/06 14:35:37;;;;;;;3.42;2.70;;;;;;;;;;4919056;29;20040;-68
2023/09/06 14:38:03;;;;;;;4.57;3.97;;;;;;;;;;4918634;29;20036;-68
2023/09/06 14:40:29;;;;;;;3.80;3.10;;;;;;;;;;4919874;29;20024;-68
2023/09/06 14:42:56;;;;;;;3.22;3.03;;;;;;;;;;4919902;29;20437;-68